createdAt,value
2023-03-12T00:00:00.164Z,1001.94
2023-03-12T00:00:40.720Z,1001.91
2023-03-12T00:01:21.276Z,1001.91
2023-03-12T00:02:02.708Z,1001.94
2023-03-12T00:02:43.839Z,1001.91
2023-03-12T00:03:24.441Z,1001.89
2023-03-12T00:04:04.960Z,1001.89
2023-03-12T00:04:45.418Z,1001.88
2023-03-12T00:05:25.969Z,1001.85
2023-03-12T00:06:10.719Z,1001.81
2023-03-12T00:06:47.071Z,1001.85
2023-03-12T00:07:27.620Z,1001.85
2023-03-12T00:08:09.578Z,1001.89
2023-03-12T00:08:50.072Z,1001.83
2023-03-12T00:09:30.637Z,1001.86
2023-03-12T00:10:11.187Z,1001.86
2023-03-12T00:10:51.737Z,1001.88
2023-03-12T00:11:32.776Z,1001.86
2023-03-12T00:12:13.319Z,1001.84
2023-03-12T00:12:53.869Z,1001.85
2023-03-12T00:13:34.454Z,1001.87
2023-03-12T00:14:14.974Z,1001.87
2023-03-12T00:14:56.275Z,1001.89
2023-03-12T00:15:37.712Z,1001.87
2023-03-12T00:17:50.372Z,1001.84
2023-03-12T00:18:31.601Z,1001.83
2023-03-12T00:19:12.084Z,1001.84
2023-03-12T00:19:53.240Z,1001.83
2023-03-12T00:20:33.750Z,1001.83
2023-03-12T00:21:14.299Z,1001.81
2023-03-12T00:21:55.815Z,1001.82
2023-03-12T00:22:37.248Z,1001.8
2023-03-12T00:23:17.798Z,1001.73
2023-03-12T00:23:58.347Z,1001.8
2023-03-12T00:24:39.751Z,1001.81
2023-03-12T00:25:20.317Z,1001.8
2023-03-12T00:26:00.872Z,1001.81
2023-03-12T00:26:41.402Z,1001.79
2023-03-12T00:27:21.953Z,1001.8
2023-03-12T00:28:03.290Z,1001.79
2023-03-12T00:28:43.844Z,1001.81
2023-03-12T00:29:24.436Z,1001.82
2023-03-12T00:30:04.942Z,1001.79
2023-03-12T00:30:45.524Z,1001.81
2023-03-12T00:31:26.137Z,1001.83
2023-03-12T00:32:06.595Z,1001.85
2023-03-12T00:32:47.184Z,1001.8
2023-03-12T00:33:27.727Z,1001.8
2023-03-12T00:34:08.283Z,1001.78
2023-03-12T00:36:37.354Z,1001.81
2023-03-12T00:37:17.858Z,1001.81
2023-03-12T00:37:58.424Z,1001.78
2023-03-12T00:38:38.962Z,1001.77
2023-03-12T00:40:52.014Z,1001.79
2023-03-12T00:41:32.608Z,1001.77
2023-03-12T00:42:13.127Z,1001.77
2023-03-12T00:42:53.662Z,1001.74
2023-03-12T00:43:34.728Z,1001.69
2023-03-12T00:44:15.253Z,1001.71
2023-03-12T00:44:55.766Z,1001.71
2023-03-12T00:45:37.063Z,1001.7
2023-03-12T00:46:17.586Z,1001.68
2023-03-12T00:46:58.120Z,1001.71
2023-03-12T00:47:38.613Z,1001.69
2023-03-12T00:48:19.128Z,1001.69
2023-03-12T00:49:01.457Z,1001.71
2023-03-12T00:49:41.997Z,1001.69
2023-03-12T00:50:23.305Z,1001.76
2023-03-12T00:51:03.817Z,1001.7
2023-03-12T00:51:44.322Z,1001.71
2023-03-12T00:52:24.856Z,1001.75
2023-03-12T00:53:05.405Z,1001.79
2023-03-12T00:53:45.926Z,1001.78
2023-03-12T00:54:26.447Z,1001.79
2023-03-12T00:55:06.955Z,1001.8
2023-03-12T00:55:47.549Z,1001.79
2023-03-12T00:56:28.075Z,1001.78
2023-03-12T00:57:09.220Z,1001.79
2023-03-12T00:57:49.747Z,1001.79
2023-03-12T00:58:30.292Z,1001.79
2023-03-12T00:59:10.818Z,1001.79
2023-03-12T00:59:51.324Z,1001.81
2023-03-12T01:00:32.448Z,1001.82
2023-03-12T01:01:13.013Z,1001.82
2023-03-12T01:01:53.489Z,1001.83
2023-03-12T01:02:34.008Z,1001.82
2023-03-12T01:03:14.524Z,1001.84
2023-03-12T01:03:55.078Z,1001.83
2023-03-12T01:04:36.209Z,1001.82
2023-03-12T01:05:16.765Z,1001.78
2023-03-12T01:05:57.287Z,1001.78
2023-03-12T01:06:37.796Z,1001.79
2023-03-12T01:07:18.311Z,1001.78
2023-03-12T01:07:58.869Z,1001.76
2023-03-12T01:10:11.912Z,1001.81
2023-03-12T01:10:52.408Z,1001.81
2023-03-12T01:11:32.958Z,1001.83
2023-03-12T01:12:13.403Z,1001.82
2023-03-12T01:12:53.925Z,1001.83
2023-03-12T01:13:34.476Z,1001.86
2023-03-12T01:14:14.957Z,1001.84
2023-03-12T01:16:33.145Z,1001.87
2023-03-12T01:17:13.607Z,1001.86
2023-03-12T01:17:54.143Z,1001.89
2023-03-12T01:18:34.646Z,1001.91
2023-03-12T01:19:16.034Z,1001.9
2023-03-12T01:19:56.523Z,1001.89
2023-03-12T01:20:37.098Z,1001.92
2023-03-12T01:21:17.630Z,1001.87
2023-03-12T01:21:58.132Z,1001.9
2023-03-12T01:22:38.638Z,1001.9
2023-03-12T01:23:19.192Z,1001.9
2023-03-12T01:23:59.679Z,1001.9
2023-03-12T01:24:40.220Z,1001.88
2023-03-12T01:25:20.724Z,1001.87
2023-03-12T01:26:01.232Z,1001.88
2023-03-12T01:28:00.064Z,1001.85
2023-03-12T01:28:40.615Z,1001.9
2023-03-12T01:29:21.106Z,1001.89
2023-03-12T01:30:01.656Z,1001.9
2023-03-12T01:30:42.202Z,1001.89
2023-03-12T01:31:22.787Z,1001.87
2023-03-12T01:32:03.312Z,1001.9
2023-03-12T01:32:43.878Z,1001.89
2023-03-12T01:33:24.386Z,1001.92
2023-03-12T01:34:04.919Z,1001.89
2023-03-12T01:34:45.456Z,1001.89
2023-03-12T01:35:26.064Z,1001.93
2023-03-12T01:36:06.654Z,1001.93
2023-03-12T01:36:46.974Z,1001.96
2023-03-12T01:37:27.538Z,1001.94
2023-03-12T01:38:08.810Z,1001.95
2023-03-12T01:38:49.303Z,1001.94
2023-03-12T01:39:29.833Z,1001.88
2023-03-12T01:40:10.328Z,1001.89
2023-03-12T01:40:50.846Z,1001.88
2023-03-12T01:43:04.420Z,1001.83
2023-03-12T01:43:44.921Z,1001.8
2023-03-12T01:44:25.441Z,1001.78
2023-03-12T01:45:06.676Z,1001.77
2023-03-12T01:45:47.208Z,1001.74
2023-03-12T01:46:27.711Z,1001.79
2023-03-12T01:47:08.220Z,1001.77
2023-03-12T01:47:48.743Z,1001.77
2023-03-12T01:48:29.469Z,1001.76
2023-03-12T01:49:10.010Z,1001.78
2023-03-12T01:49:50.523Z,1001.76
2023-03-12T01:50:31.052Z,1001.79
2023-03-12T01:51:11.598Z,1001.76
2023-03-12T01:51:52.133Z,1001.77
2023-03-12T01:52:32.630Z,1001.77
2023-03-12T01:53:13.137Z,1001.79
2023-03-12T01:53:53.655Z,1001.78
2023-03-12T01:54:34.172Z,1001.77
2023-03-12T01:55:14.690Z,1001.74
2023-03-12T01:55:56.159Z,1001.73
2023-03-12T01:56:36.672Z,1001.69
2023-03-12T01:57:17.178Z,1001.72
2023-03-12T01:57:57.708Z,1001.7
2023-03-12T01:58:38.224Z,1001.7
2023-03-12T01:59:18.755Z,1001.74
2023-03-12T01:59:59.263Z,1001.7
2023-03-12T02:00:39.918Z,1001.7
2023-03-12T02:02:37.741Z,1001.62
2023-03-12T02:03:18.261Z,1001.62
2023-03-12T02:03:58.868Z,1001.58
2023-03-12T02:04:39.282Z,1001.56
2023-03-12T02:05:19.817Z,1001.51
2023-03-12T02:06:00.324Z,1001.53
2023-03-12T02:06:40.890Z,1001.53
2023-03-12T02:07:21.405Z,1001.52
2023-03-12T02:08:01.911Z,1001.52
2023-03-12T02:08:42.431Z,1001.53
2023-03-12T02:09:22.977Z,1001.54
2023-03-12T02:10:04.476Z,1001.54
2023-03-12T02:10:44.980Z,1001.53
2023-03-12T02:11:25.489Z,1001.57
2023-03-12T02:12:06.012Z,1001.55
2023-03-12T02:12:46.553Z,1001.55
2023-03-12T02:13:27.071Z,1001.55
2023-03-12T02:14:07.593Z,1001.58
2023-03-12T02:14:48.104Z,1001.52
2023-03-12T02:15:28.644Z,1001.52
2023-03-12T02:16:09.203Z,1001.54
2023-03-12T02:16:49.765Z,1001.57
2023-03-12T02:17:30.211Z,1001.54
2023-03-12T02:18:10.744Z,1001.58
2023-03-12T02:20:28.715Z,1001.49
2023-03-12T02:21:10.092Z,1001.49
2023-03-12T02:21:51.360Z,1001.49
2023-03-12T02:22:34.084Z,1001.47
2023-03-12T02:24:32.923Z,1001.57
2023-03-12T02:25:13.418Z,1001.56
2023-03-12T02:25:53.930Z,1001.56
2023-03-12T02:26:34.436Z,1001.53
2023-03-12T02:27:15.682Z,1001.57
2023-03-12T02:27:57.928Z,1001.55
2023-03-12T02:28:39.101Z,1001.54
2023-03-12T02:29:19.621Z,1001.57
2023-03-12T02:30:01.719Z,1001.53
2023-03-12T02:30:42.197Z,1001.52
2023-03-12T02:31:23.762Z,1001.58
2023-03-12T02:32:04.322Z,1001.53
2023-03-12T02:32:44.704Z,1001.52
2023-03-12T02:33:25.200Z,1001.52
2023-03-12T02:34:05.682Z,1001.53
2023-03-12T02:34:46.208Z,1001.53
2023-03-12T02:35:26.693Z,1001.51
2023-03-12T02:36:07.224Z,1001.53
2023-03-12T02:38:20.017Z,1001.51
2023-03-12T02:39:01.162Z,1001.52
2023-03-12T02:39:41.681Z,1001.52
2023-03-12T02:40:22.208Z,1001.48
2023-03-12T02:41:03.498Z,1001.45
2023-03-12T02:41:44.041Z,1001.48
2023-03-12T02:42:24.572Z,1001.49
2023-03-12T02:43:05.077Z,1001.47
2023-03-12T02:43:45.595Z,1001.47
2023-03-12T02:44:26.123Z,1001.48
2023-03-12T02:45:06.623Z,1001.42
2023-03-12T02:45:47.162Z,1001.4
2023-03-12T02:46:27.692Z,1001.36
2023-03-12T02:47:08.226Z,1001.4
2023-03-12T02:47:48.721Z,1001.39
2023-03-12T02:48:29.242Z,1001.4
2023-03-12T02:49:09.776Z,1001.41
2023-03-12T02:49:50.301Z,1001.41
2023-03-12T02:50:30.824Z,1001.42
2023-03-12T02:51:11.365Z,1001.39
2023-03-12T02:51:51.894Z,1001.42
2023-03-12T02:52:32.397Z,1001.43
2023-03-12T02:53:12.904Z,1001.42
2023-03-12T02:53:53.451Z,1001.43
2023-03-12T02:54:34.020Z,1001.41
2023-03-12T02:55:14.455Z,1001.44
2023-03-12T02:55:55.001Z,1001.42
2023-03-12T02:56:35.524Z,1001.41
2023-03-12T02:57:16.022Z,1001.4
2023-03-12T02:57:56.541Z,1001.41
2023-03-12T02:58:37.062Z,1001.38
2023-03-12T02:59:17.573Z,1001.42
2023-03-12T02:59:58.100Z,1001.41
2023-03-12T03:00:38.628Z,1001.43
2023-03-12T03:01:19.210Z,1001.45
2023-03-12T03:01:59.677Z,1001.5
2023-03-12T03:02:40.202Z,1001.5
2023-03-12T03:03:20.730Z,1001.48
2023-03-12T03:04:01.987Z,1001.48
2023-03-12T03:04:42.466Z,1001.48
2023-03-12T03:05:22.977Z,1001.52
2023-03-12T03:06:03.479Z,1001.49
2023-03-12T03:08:18.025Z,1001.46
2023-03-12T03:08:58.590Z,1001.51
2023-03-12T03:09:39.111Z,1001.46
2023-03-12T03:10:19.635Z,1001.4
2023-03-12T03:11:00.727Z,1001.45
2023-03-12T03:12:54.031Z,1001.42
2023-03-12T03:13:34.532Z,1001.4
2023-03-12T03:14:15.057Z,1001.37
2023-03-12T03:14:55.591Z,1001.41
2023-03-12T03:15:36.126Z,1001.39
2023-03-12T03:16:16.634Z,1001.39
2023-03-12T03:16:57.097Z,1001.36
2023-03-12T03:17:37.619Z,1001.35
2023-03-12T03:18:18.759Z,1001.34
2023-03-12T03:18:59.249Z,1001.33
2023-03-12T03:19:39.771Z,1001.33
2023-03-12T03:20:20.247Z,1001.31
2023-03-12T03:21:01.222Z,1001.31
2023-03-12T03:21:42.242Z,1001.31
2023-03-12T03:22:22.727Z,1001.29
2023-03-12T03:23:03.182Z,1001.33
2023-03-12T03:23:43.719Z,1001.27
2023-03-12T03:24:24.773Z,1001.29
2023-03-12T03:25:05.308Z,1001.28
2023-03-12T03:25:45.732Z,1001.26
2023-03-12T03:26:26.236Z,1001.23
2023-03-12T03:27:06.753Z,1001.24
2023-03-12T03:27:47.282Z,1001.27
2023-03-12T03:28:27.829Z,1001.27
2023-03-12T03:29:08.350Z,1001.27
2023-03-12T03:29:49.808Z,1001.25
2023-03-12T03:30:30.314Z,1001.26
2023-03-12T03:31:10.913Z,1001.24
2023-03-12T03:31:51.387Z,1001.23
2023-03-12T03:32:31.929Z,1001.24
2023-03-12T03:33:12.939Z,1001.23
2023-03-12T03:33:53.469Z,1001.23
2023-03-12T03:35:51.437Z,1001.2
2023-03-12T03:36:31.909Z,1001.24
2023-03-12T03:37:12.426Z,1001.23
2023-03-12T03:37:52.975Z,1001.25
2023-03-12T03:38:33.535Z,1001.27
2023-03-12T03:39:14.033Z,1001.27
2023-03-12T03:39:54.565Z,1001.26
2023-03-12T03:40:35.065Z,1001.29
2023-03-12T03:41:15.583Z,1001.27
2023-03-12T03:41:56.091Z,1001.27
2023-03-12T03:42:36.607Z,1001.25
2023-03-12T03:43:17.125Z,1001.25
2023-03-12T03:43:57.659Z,1001.26
2023-03-12T03:44:38.179Z,1001.28
2023-03-12T03:45:18.706Z,1001.27
2023-03-12T03:45:59.264Z,1001.22
2023-03-12T03:46:39.842Z,1001.2
2023-03-12T03:47:20.277Z,1001.16
2023-03-12T03:48:00.816Z,1001.17
2023-03-12T03:48:41.334Z,1001.19
2023-03-12T03:49:21.859Z,1001.17
2023-03-12T03:50:02.406Z,1001.17
2023-03-12T03:50:42.942Z,1001.22
2023-03-12T03:51:23.454Z,1001.22
2023-03-12T03:52:03.989Z,1001.21
2023-03-12T03:52:44.498Z,1001.16
2023-03-12T03:53:25.013Z,1001.17
2023-03-12T03:54:06.151Z,1001.14
2023-03-12T03:54:46.692Z,1001.13
2023-03-12T03:55:27.225Z,1001.09
2023-03-12T03:56:07.813Z,1001.08
2023-03-12T03:56:48.310Z,1001.1
2023-03-12T03:57:28.865Z,1001.09
2023-03-12T03:58:09.422Z,1001.1
2023-03-12T03:58:49.958Z,1001.1
2023-03-12T03:59:30.469Z,1001.08
2023-03-12T04:00:10.994Z,1001.07
2023-03-12T04:00:51.504Z,1001.02
2023-03-12T04:01:32.005Z,1001
2023-03-12T04:02:12.546Z,1001.03
2023-03-12T04:02:53.062Z,1001.06
2023-03-12T04:03:33.649Z,1001.09
2023-03-12T04:04:15.003Z,1001.1
2023-03-12T04:04:55.544Z,1001.13
2023-03-12T04:05:36.158Z,1001.1
2023-03-12T04:06:16.623Z,1001.14
2023-03-12T04:06:57.149Z,1001.14
2023-03-12T04:07:37.652Z,1001.17
2023-03-12T04:08:18.173Z,1001.22
2023-03-12T04:08:58.716Z,1001.22
2023-03-12T04:09:39.231Z,1001.3
2023-03-12T04:10:19.736Z,1001.29
2023-03-12T04:11:00.285Z,1001.3
2023-03-12T04:11:40.780Z,1001.27
2023-03-12T04:12:21.285Z,1001.32
2023-03-12T04:13:01.824Z,1001.32
2023-03-12T04:13:42.334Z,1001.32
2023-03-12T04:14:22.861Z,1001.35
2023-03-12T04:15:03.372Z,1001.42
2023-03-12T04:15:43.999Z,1001.37
2023-03-12T04:16:24.447Z,1001.39
2023-03-12T04:17:04.984Z,1001.35
2023-03-12T04:17:45.594Z,1001.34
2023-03-12T04:18:26.104Z,1001.36
2023-03-12T04:19:06.621Z,1001.35
2023-03-12T04:19:47.138Z,1001.37
2023-03-12T04:20:27.642Z,1001.35
2023-03-12T04:21:08.237Z,1001.35
2023-03-12T04:21:48.703Z,1001.35
2023-03-12T04:22:30.098Z,1001.36
2023-03-12T04:23:10.626Z,1001.38
2023-03-12T04:23:51.151Z,1001.36
2023-03-12T04:24:31.708Z,1001.36
2023-03-12T04:25:12.252Z,1001.37
2023-03-12T04:25:52.758Z,1001.38
2023-03-12T04:26:33.312Z,1001.38
2023-03-12T04:27:13.856Z,1001.38
2023-03-12T04:27:54.417Z,1001.36
2023-03-12T04:28:34.899Z,1001.37
2023-03-12T04:29:15.425Z,1001.38
2023-03-12T04:29:55.931Z,1001.38
2023-03-12T04:30:36.456Z,1001.37
2023-03-12T04:31:16.974Z,1001.34
2023-03-12T04:31:57.512Z,1001.39
2023-03-12T04:32:38.121Z,1001.35
2023-03-12T04:33:18.609Z,1001.37
2023-03-12T04:33:59.126Z,1001.37
2023-03-12T04:34:39.647Z,1001.35
2023-03-12T04:35:20.157Z,1001.3
2023-03-12T04:36:00.759Z,1001.31
2023-03-12T04:36:41.232Z,1001.33
2023-03-12T04:38:54.294Z,1001.4
2023-03-12T04:39:34.807Z,1001.39
2023-03-12T04:40:15.317Z,1001.35
2023-03-12T04:40:55.840Z,1001.37
2023-03-12T04:41:36.366Z,1001.35
2023-03-12T04:42:16.879Z,1001.38
2023-03-12T04:42:57.391Z,1001.44
2023-03-12T04:43:38.774Z,1001.42
2023-03-12T04:44:19.307Z,1001.46
2023-03-12T04:45:00.388Z,1001.46
2023-03-12T04:45:40.914Z,1001.44
2023-03-12T04:46:21.453Z,1001.41
2023-03-12T04:47:02.018Z,1001.42
2023-03-12T04:47:42.475Z,1001.39
2023-03-12T04:48:22.988Z,1001.41
2023-03-12T04:49:03.497Z,1001.41
2023-03-12T04:49:44.028Z,1001.42
2023-03-12T04:51:57.596Z,1001.4
2023-03-12T04:52:38.103Z,1001.38
2023-03-12T04:53:18.651Z,1001.39
2023-03-12T04:53:59.158Z,1001.39
2023-03-12T04:54:39.676Z,1001.39
2023-03-12T04:55:20.203Z,1001.4
2023-03-12T04:56:00.736Z,1001.4
2023-03-12T04:56:41.296Z,1001.37
2023-03-12T04:57:21.820Z,1001.33
2023-03-12T04:58:02.371Z,1001.35
2023-03-12T04:58:42.906Z,1001.36
2023-03-12T04:59:23.417Z,1001.35
2023-03-12T05:00:03.966Z,1001.35
2023-03-12T05:00:44.466Z,1001.32
2023-03-12T05:01:25.003Z,1001.29
2023-03-12T05:02:05.504Z,1001.32
2023-03-12T05:02:46.094Z,1001.33
2023-03-12T05:03:26.619Z,1001.3
2023-03-12T05:04:07.152Z,1001.31
2023-03-12T05:04:47.586Z,1001.32
2023-03-12T05:07:00.369Z,1001.3
2023-03-12T05:07:40.887Z,1001.33
2023-03-12T05:08:22.042Z,1001.35
2023-03-12T05:09:02.546Z,1001.32
2023-03-12T05:09:43.057Z,1001.3
2023-03-12T05:10:23.588Z,1001.31
2023-03-12T05:11:04.085Z,1001.25
2023-03-12T05:11:44.622Z,1001.28
2023-03-12T05:12:25.099Z,1001.29
2023-03-12T05:13:05.610Z,1001.28
2023-03-12T05:13:46.672Z,1001.3
2023-03-12T05:14:27.203Z,1001.27
2023-03-12T05:15:07.705Z,1001.26
2023-03-12T05:15:48.213Z,1001.29
2023-03-12T05:16:28.828Z,1001.26
2023-03-12T05:17:09.272Z,1001.25
2023-03-12T05:17:49.806Z,1001.22
2023-03-12T05:18:30.310Z,1001.23
2023-03-12T05:19:11.635Z,1001.26
2023-03-12T05:19:52.188Z,1001.25
2023-03-12T05:20:32.726Z,1001.25
2023-03-12T05:21:13.249Z,1001.22
2023-03-12T05:21:53.781Z,1001.19
2023-03-12T05:22:34.325Z,1001.23
2023-03-12T05:23:14.871Z,1001.2
2023-03-12T05:23:55.452Z,1001.18
2023-03-12T05:24:35.897Z,1001.21
2023-03-12T05:25:16.449Z,1001.17
2023-03-12T05:25:56.984Z,1001.18
2023-03-12T05:26:37.502Z,1001.19
2023-03-12T05:27:18.030Z,1001.14
2023-03-12T05:27:59.032Z,1001.13
2023-03-12T05:29:57.514Z,1001.12
2023-03-12T05:30:38.021Z,1001.1
2023-03-12T05:31:19.538Z,1001.14
2023-03-12T05:32:00.028Z,1001.14
2023-03-12T05:32:40.616Z,1001.13
2023-03-12T05:33:21.047Z,1001.15
2023-03-12T05:34:01.603Z,1001.14
2023-03-12T05:34:42.060Z,1001.16
2023-03-12T05:35:22.581Z,1001.15
2023-03-12T05:36:03.262Z,1001.13
2023-03-12T05:36:43.614Z,1001.16
2023-03-12T05:37:24.151Z,1001.13
2023-03-12T05:39:22.263Z,1001.1
2023-03-12T05:40:02.814Z,1001.12
2023-03-12T05:40:43.316Z,1001.09
2023-03-12T05:41:23.858Z,1001.07
2023-03-12T05:42:04.351Z,1001.11
2023-03-12T05:42:45.811Z,1001.09
2023-03-12T05:43:26.289Z,1001.1
2023-03-12T05:44:06.838Z,1001.11
2023-03-12T05:44:47.372Z,1001.07
2023-03-12T05:45:27.906Z,1001.05
2023-03-12T05:46:08.516Z,1001.05
2023-03-12T05:46:48.908Z,1001
2023-03-12T05:47:29.450Z,1000.99
2023-03-12T05:48:09.981Z,1001.01
2023-03-12T05:48:50.509Z,1000.94
2023-03-12T05:49:31.006Z,1000.93
2023-03-12T05:50:11.527Z,1000.91
2023-03-12T05:50:52.044Z,1000.87
2023-03-12T05:51:33.583Z,1000.9
2023-03-12T05:52:14.101Z,1000.88
2023-03-12T05:52:54.651Z,1000.86
2023-03-12T05:53:35.148Z,1000.87
2023-03-12T05:54:15.767Z,1000.85
2023-03-12T05:54:56.320Z,1000.83
2023-03-12T05:55:36.859Z,1000.81
2023-03-12T05:56:17.495Z,1000.83
2023-03-12T05:56:57.962Z,1000.86
2023-03-12T05:57:38.980Z,1000.82
2023-03-12T05:58:19.540Z,1000.85
2023-03-12T05:59:00.043Z,1000.83
2023-03-12T05:59:40.620Z,1000.83
2023-03-12T06:00:21.130Z,1000.83
2023-03-12T06:01:01.634Z,1000.81
2023-03-12T06:01:42.145Z,1000.84
2023-03-12T06:02:22.705Z,1000.88
2023-03-12T06:03:03.239Z,1000.84
2023-03-12T06:03:43.759Z,1000.92
2023-03-12T06:04:24.251Z,1000.91
2023-03-12T06:06:37.310Z,1000.8
2023-03-12T06:07:17.854Z,1000.81
2023-03-12T06:07:58.374Z,1000.81
2023-03-12T06:08:38.868Z,1000.82
2023-03-12T06:09:19.388Z,1000.82
2023-03-12T06:09:59.896Z,1000.83
2023-03-12T06:10:40.415Z,1000.84
2023-03-12T06:11:20.952Z,1000.83
2023-03-12T06:12:01.471Z,1000.8
2023-03-12T06:12:41.990Z,1000.8
2023-03-12T06:13:22.528Z,1000.78
2023-03-12T06:14:03.561Z,1000.77
2023-03-12T06:14:44.086Z,1000.74
2023-03-12T06:15:24.602Z,1000.76
2023-03-12T06:16:05.117Z,1000.78
2023-03-12T06:16:45.706Z,1000.83
2023-03-12T06:17:26.145Z,1000.83
2023-03-12T06:18:06.675Z,1000.86
2023-03-12T06:18:47.199Z,1000.87
2023-03-12T06:19:27.682Z,1000.89
2023-03-12T06:20:08.241Z,1000.89
2023-03-12T06:20:48.725Z,1000.88
2023-03-12T06:21:29.257Z,1000.86
2023-03-12T06:23:43.557Z,1000.92
2023-03-12T06:24:24.105Z,1000.93
2023-03-12T06:25:04.623Z,1000.94
2023-03-12T06:25:45.175Z,1000.9
2023-03-12T06:26:25.707Z,1000.88
2023-03-12T06:27:06.219Z,1000.88
2023-03-12T06:27:46.722Z,1000.85
2023-03-12T06:28:27.266Z,1000.83
2023-03-12T06:29:07.771Z,1000.83
2023-03-12T06:29:48.303Z,1000.87
2023-03-12T06:30:28.920Z,1000.87
2023-03-12T06:32:26.882Z,1000.91
2023-03-12T06:33:07.379Z,1000.87
2023-03-12T06:33:47.930Z,1000.94
2023-03-12T06:34:29.044Z,1000.91
2023-03-12T06:35:09.536Z,1000.93
2023-03-12T06:35:50.042Z,1000.89
2023-03-12T06:36:30.483Z,1000.95
2023-03-12T06:37:10.988Z,1001.01
2023-03-12T06:37:51.474Z,1000.99
2023-03-12T06:38:31.964Z,1001.01
2023-03-12T06:39:12.437Z,1001
2023-03-12T06:39:52.960Z,1001.01
2023-03-12T06:40:33.476Z,1000.98
2023-03-12T06:41:13.993Z,1001
2023-03-12T06:41:54.505Z,1001.02
2023-03-12T06:42:35.053Z,1001.03
2023-03-12T06:43:15.596Z,1001.03
2023-03-12T06:43:56.160Z,1001.06
2023-03-12T06:44:36.642Z,1001.01
2023-03-12T06:45:17.149Z,1001
2023-03-12T06:45:57.765Z,1001
2023-03-12T06:46:38.306Z,1000.96
2023-03-12T06:47:18.760Z,1000.96
2023-03-12T06:47:59.261Z,1000.99
2023-03-12T06:48:39.785Z,1001
2023-03-12T06:49:20.302Z,1001.01
2023-03-12T06:50:00.830Z,1000.98
2023-03-12T06:50:41.337Z,1000.96
2023-03-12T06:51:22.467Z,1001
2023-03-12T06:52:02.996Z,1000.99
2023-03-12T06:52:43.550Z,1000.99
2023-03-12T06:53:24.076Z,1000.99
2023-03-12T06:54:04.598Z,1000.99
2023-03-12T06:54:45.106Z,1001.01
2023-03-12T06:55:25.625Z,1001.01
2023-03-12T06:56:06.121Z,1001
2023-03-12T06:56:46.644Z,1001.03
2023-03-12T06:57:28.031Z,1001.08
2023-03-12T06:58:08.541Z,1001.04
2023-03-12T06:58:49.088Z,1001.08
2023-03-12T06:59:29.605Z,1001.1
2023-03-12T07:00:10.118Z,1001.07
2023-03-12T07:00:50.708Z,1001.08
2023-03-12T07:01:31.225Z,1001.07
2023-03-12T07:02:11.779Z,1001.1
2023-03-12T07:02:52.303Z,1001.08
2023-03-12T07:03:32.821Z,1001.12
2023-03-12T07:04:13.324Z,1001.07
2023-03-12T07:04:53.901Z,1001.08
2023-03-12T07:05:34.378Z,1001.11
2023-03-12T07:06:14.885Z,1001.14
2023-03-12T07:06:56.255Z,1001.16
2023-03-12T07:07:36.766Z,1001.19
2023-03-12T07:08:17.296Z,1001.16
2023-03-12T07:08:57.811Z,1001.17
2023-03-12T07:09:38.322Z,1001.2
2023-03-12T07:10:18.841Z,1001.18
2023-03-12T07:11:01.272Z,1001.17
2023-03-12T07:11:39.898Z,1001.17
2023-03-12T07:12:21.370Z,1001.15
2023-03-12T07:13:01.885Z,1001.18
2023-03-12T07:13:42.440Z,1001.17
2023-03-12T07:14:22.955Z,1001.15
2023-03-12T07:15:03.475Z,1001.15
2023-03-12T07:15:44.001Z,1001.15
2023-03-12T07:16:24.635Z,1001.18
2023-03-12T07:17:05.022Z,1001.17
2023-03-12T07:17:45.581Z,1001.18
2023-03-12T07:18:26.091Z,1001.17
2023-03-12T07:19:07.291Z,1001.21
2023-03-12T07:19:49.772Z,1001.18
2023-03-12T07:20:28.352Z,1001.22
2023-03-12T07:21:09.867Z,1001.22
2023-03-12T07:21:50.380Z,1001.23
2023-03-12T07:22:30.902Z,1001.25
2023-03-12T07:23:11.423Z,1001.23
2023-03-12T07:23:51.964Z,1001.28
2023-03-12T07:24:32.486Z,1001.3
2023-03-12T07:25:13.035Z,1001.3
2023-03-12T07:25:53.550Z,1001.32
2023-03-12T07:26:34.067Z,1001.37
2023-03-12T07:27:14.616Z,1001.39
2023-03-12T07:27:55.114Z,1001.37
2023-03-12T07:28:35.618Z,1001.4
2023-03-12T07:29:16.170Z,1001.41
2023-03-12T07:29:56.685Z,1001.48
2023-03-12T07:32:10.287Z,1001.49
2023-03-12T07:32:50.843Z,1001.51
2023-03-12T07:33:31.434Z,1001.47
2023-03-12T07:34:11.940Z,1001.49
2023-03-12T07:34:53.269Z,1001.46
2023-03-12T07:35:33.917Z,1001.45
2023-03-12T07:36:14.422Z,1001.47
2023-03-12T07:36:54.967Z,1001.47
2023-03-12T07:37:35.347Z,1001.48
2023-03-12T07:38:15.943Z,1001.48
2023-03-12T07:38:56.416Z,1001.46
2023-03-12T07:39:36.952Z,1001.45
2023-03-12T07:40:17.471Z,1001.46
2023-03-12T07:40:58.059Z,1001.48
2023-03-12T07:41:38.520Z,1001.43
2023-03-12T07:42:19.117Z,1001.48
2023-03-12T07:42:59.573Z,1001.44
2023-03-12T07:43:40.112Z,1001.51
2023-03-12T07:44:21.148Z,1001.51
2023-03-12T07:45:02.768Z,1001.47
2023-03-12T07:45:43.300Z,1001.51
2023-03-12T07:46:23.874Z,1001.51
2023-03-12T07:47:16.694Z,1001.51
2023-03-12T07:47:44.973Z,1001.53
2023-03-12T07:48:25.353Z,1001.48
2023-03-12T07:49:06.638Z,1001.45
2023-03-12T07:49:47.204Z,1001.46
2023-03-12T07:50:27.737Z,1001.43
2023-03-12T07:51:08.195Z,1001.45
2023-03-12T07:51:49.011Z,1001.48
2023-03-12T07:52:29.343Z,1001.5
2023-03-12T07:53:09.776Z,1001.49
2023-03-12T07:53:50.483Z,1001.52
2023-03-12T07:54:30.908Z,1001.53
2023-03-12T07:55:11.435Z,1001.46
2023-03-12T07:55:52.797Z,1001.42
2023-03-12T07:56:35.038Z,1001.4
2023-03-12T07:57:13.834Z,1001.44
2023-03-12T07:57:54.228Z,1001.41
2023-03-12T07:58:34.843Z,1001.46
2023-03-12T07:59:15.344Z,1001.44
2023-03-12T07:59:55.783Z,1001.37
2023-03-12T08:00:36.292Z,1001.38
2023-03-12T08:01:16.846Z,1001.4
2023-03-12T08:01:57.406Z,1001.38
2023-03-12T08:03:55.307Z,1001.44
2023-03-12T08:04:35.963Z,1001.44
2023-03-12T08:05:16.319Z,1001.41
2023-03-12T08:05:56.909Z,1001.41
2023-03-12T08:06:37.368Z,1001.44
2023-03-12T08:07:17.918Z,1001.45
2023-03-12T08:07:59.038Z,1001.47
2023-03-12T08:08:40.195Z,1001.51
2023-03-12T08:09:20.710Z,1001.48
2023-03-12T08:10:01.248Z,1001.47
2023-03-12T08:10:41.747Z,1001.47
2023-03-12T08:11:22.985Z,1001.49
2023-03-12T08:12:03.511Z,1001.52
2023-03-12T08:12:44.286Z,1001.57
2023-03-12T08:13:25.490Z,1001.59
2023-03-12T08:14:06.841Z,1001.61
2023-03-12T08:14:47.709Z,1001.6
2023-03-12T08:15:27.817Z,1001.6
2023-03-12T08:16:09.568Z,1001.63
2023-03-12T08:16:49.988Z,1001.65
2023-03-12T08:17:30.065Z,1001.66
2023-03-12T08:18:10.578Z,1001.64
2023-03-12T08:18:51.306Z,1001.69
2023-03-12T08:19:31.641Z,1001.67
2023-03-12T08:20:12.114Z,1001.74
2023-03-12T08:22:10.037Z,1001.7
2023-03-12T08:22:50.653Z,1001.75
2023-03-12T08:23:31.665Z,1001.74
2023-03-12T08:24:12.184Z,1001.75
2023-03-12T08:24:52.695Z,1001.73
2023-03-12T08:25:33.205Z,1001.72
2023-03-12T08:26:13.731Z,1001.75
2023-03-12T08:26:54.265Z,1001.74
2023-03-12T08:27:34.769Z,1001.74
2023-03-12T08:28:15.277Z,1001.76
2023-03-12T08:28:55.789Z,1001.76
2023-03-12T08:29:36.320Z,1001.77
2023-03-12T08:30:16.845Z,1001.76
2023-03-12T08:30:57.350Z,1001.74
2023-03-12T08:31:37.901Z,1001.73
2023-03-12T08:32:18.477Z,1001.73
2023-03-12T08:32:58.991Z,1001.73
2023-03-12T08:33:39.426Z,1001.76
2023-03-12T08:34:19.947Z,1001.77
2023-03-12T08:35:00.725Z,1001.74
2023-03-12T08:35:41.246Z,1001.76
2023-03-12T08:36:22.537Z,1001.74
2023-03-12T08:37:02.259Z,1001.7
2023-03-12T08:37:42.761Z,1001.71
2023-03-12T08:38:23.303Z,1001.71
2023-03-12T08:39:04.544Z,1001.69
2023-03-12T08:39:45.064Z,1001.75
2023-03-12T08:40:25.569Z,1001.75
2023-03-12T08:41:06.732Z,1001.72
2023-03-12T08:41:47.247Z,1001.74
2023-03-12T08:42:27.768Z,1001.73
2023-03-12T08:43:08.300Z,1001.75
2023-03-12T08:43:48.812Z,1001.77
2023-03-12T08:44:29.334Z,1001.78
2023-03-12T08:45:09.838Z,1001.74
2023-03-12T08:45:50.420Z,1001.66
2023-03-12T08:46:30.887Z,1001.69
2023-03-12T08:47:11.408Z,1001.73
2023-03-12T08:47:51.917Z,1001.74
2023-03-12T08:48:32.442Z,1001.74
2023-03-12T08:49:12.953Z,1001.78